x

Southeast Bering Sea -205nm Wnw Of Dutch Harbor, Ak (46073) Wave Buoy

11:50 - Mon 28th Jul 2014 All times are UTC.

  • Sig Wave height 2.6ft
  • Swell Direction
  • Peak Period 7s
  • Average Period 6s
  • Wind
    4mph, 7mph gusts
  • Sea Temp 53°f
  • Aire Temp 48°f
  • Sea Pressure 1025.7mb

More Historic Weather Station data

Upgrade to MSW Pro to gain access to the past 30 days of data for over 8000 Wavebouys and Weather Stations around the globe.

Join Pro

Comparision Forecast

View Surf forecast
   
lun 07/28 11:50 2.5ft 7s 6s 4 7 mph 1025.7mb 53f 48f
10:50 2.5ft 7s 6s 2
mph
1025.9mb 53f 48f
9:50 2.5ft 7s 6s 4 7 mph 1025.7mb 53f 49f
8:50 2.5ft 8s 6s 4 7 mph 1025.5mb 53f 49f
7:50 2.5ft 8s 6s 4 9 mph 1025.1mb 53f 49f
6:50 2.5ft 8s 6s 2 4 mph 1025mb 53f 49f
5:50 2.5ft 8s 6s 4 9 mph 1025mb 54f 49f
4:50 3ft 8s 6s 4 7 mph 1025mb 54f 49f
3:50 2.5ft 9s 6s 4 7 mph 1025mb 54f 49f
2:50 2.5ft 8s 6s 4 7 mph 1025.1mb 54f 49f
1:50 2.5ft 8s 6s  -  mph 1025.1mb 54f 49f
12:50 3ft 9s 6s 2
mph
1025.1mb 53f 49f
dom 07/27 11:50 3ft 7s 6s 2 4 mph 1025.1mb 53f 49f
10:50 3.5ft 7s 6s 2 4 mph 1024.8mb 52f 49f
9:50 3.5ft 7s 6s 7
mph
1024.7mb 52f 49f
8:50 3ft 8s 6s 4 7 mph 1024.5mb 52f 49f
7:50 3.5ft 7s 6s 7
mph
1024.4mb 52f 49f
6:50 3.5ft 8s 6s 4
mph
1024.1mb 52f 48f
5:50 3ft 8s 6s 4 7 mph 1023.9mb 52f 48f
4:50 3ft 7s 6s 4 7 mph 1023.8mb 52f 47f
3:50 3ft 7s 6s 7 9 mph 1023.8mb 52f 47f
2:50 2.5ft 9s 6s 4 7 mph 1023.7mb 52f 47f
1:50 3ft 8s 6s 4 7 mph 1023.5mb 52f 47f
12:50 3.5ft 8s 6s 9
mph
1023.5mb 52f 48f
11:50 3.5ft 7s 6s 7 9 mph 1023.4mb 52f 48f
10:50 3.5ft 7s 6s 4 9 mph 1023.4mb 52f 48f
9:50 3.5ft 7s 6s 4
mph
1023.5mb 52f 48f
8:50 3.5ft 7s 6s 7 9 mph 1023.2mb 52f 49f
7:50 3.5ft 7s 6s 9
mph
1022.9mb 52f 49f
6:50 3.5ft 7s 6s 7 9 mph 1022.4mb 52f 49f
5:50 4ft 8s 6s 9 11 mph 1022.3mb 52f 49f
4:50 4ft 8s 6s 9 11 mph 1022.1mb 52f 50f
3:50 3.5ft 8s 6s 9 11 mph 1022.4mb 52f 51f
2:50 3.5ft 7s 6s 9 11 mph 1022.5mb 52f 51f
1:50 3.5ft 9s 6s 9
mph
1022.5mb 52f 51f
12:50 3.5ft 8s 6s 7 9 mph 1022.8mb 52f 51f
sáb 07/26 11:50 4ft 8s 6s 9
mph
1022.7mb 52f 51f
10:50 3.5ft 8s 6s 9 11 mph 1022.6mb 52f 51f
9:50 4ft 9s 6s 9 11 mph 1022.7mb 52f 51f
8:50 4ft 8s 6s 9 11 mph 1022.6mb 51f 50f
7:50 4.5ft 8s 6s 11 13 mph 1022.7mb 51f 49f
6:50 4.5ft 9s 6s 11 16 mph 1022.5mb 51f 49f
5:50 4.5ft 8s 6s 11 13 mph 1022.5mb 51f 49f
4:50 4.5ft 8s 6s 11 13 mph 1022.3mb 51f 48f
3:50 4.5ft 8s 6s 13 16 mph 1022.1mb 51f 49f
2:50 4ft 8s 6s 9 11 mph 1022.1mb 51f 49f
1:50 4ft 8s 6s 11 13 mph 1022.3mb 51f 49f
12:50 4ft 8s 6s 11 13 mph 1022.6mb 51f 49f
11:50 3.5ft 8s 6s 9 11 mph 1022.7mb 51f 49f
10:50 4ft 8s 6s 9 11 mph 1023mb 51f 48f
9:50 3.5ft 8s 6s 9 11 mph 1022.8mb 51f 49f
8:50 4ft 8s 6s 9 11 mph 1022.9mb 51f 50f
7:50 4.5ft 8s 6s 9 11 mph 1022.7mb 51f 49f
6:50 4.5ft 8s 6s 11 13 mph 1022.6mb 52f 50f
5:50 5ft 8s 6s 11
mph
1022.5mb 51f 50f
4:50 5ft 8s 6s 13 16 mph 1022.6mb 52f 50f
3:50 4.5ft 8s 6s 13 16 mph 1022.7mb 52f 50f
2:50 5ft 8s 6s 11 16 mph 1023.2mb 52f 50f
1:50 4.5ft 8s 6s 11 16 mph 1023.4mb 52f 50f
12:50 5ft 8s 6s 11 16 mph 1023.4mb 52f 50f
vie 07/25 11:50 4.5ft 9s 6s 11 13 mph 1023.3mb 51f 50f
10:50 5ft 9s 6s 11 13 mph 1023.5mb 51f 49f
9:50 5ft 8s 6s 11 16 mph 1023.7mb 51f 49f
8:50 5ft 8s 6s 11 13 mph 1023.8mb 51f 49f
7:50 4.5ft 9s 6s 13 16 mph 1024mb 51f 49f
6:50 6ft 9s 6s 13 16 mph 1024mb 51f 49f
5:50 6ft 9s 6s 11 16 mph 1024mb 51f 49f
4:50 6ft 9s 6s 11 13 mph 1023.7mb 51f 50f
3:50 5.5ft 9s 6s 13 16 mph 1023.6mb 51f 50f
2:50 6ft 8s 6s 13 18 mph 1023.5mb 51f 50f
1:50 5ft 8s 6s 13 16 mph 1023.7mb 51f 50f
12:50 5ft 8s 6s 13 16 mph 1024.1mb 51f 50f
11:50 5ft 8s 6s 13 16 mph 1024.2mb 51f 50f
10:50 5ft 8s 6s 11 13 mph 1024.1mb 51f 50f
9:50 5.5ft 8s 6s 11 13 mph 1024.1mb 51f 51f
8:50 5.5ft 8s 6s 11 13 mph 1024.1mb 51f 51f
7:50 5ft 7s 6s 13 16 mph 1023.8mb 51f 51f
6:50 5.5ft 7s 6s 13 16 mph 1023.4mb 51f 51f
5:50 5ft 8s 6s 11 13 mph 1023.1mb 51f 51f
4:50 5ft 8s 6s 13 16 mph 1022.8mb 51f 51f
3:50 6ft 8s 6s 13 16 mph 1022.9mb 51f 51f
2:50 5.5ft 7s 6s 16 18 mph 1022.5mb 51f 51f
1:50 5ft 7s 6s 13 18 mph 1022.7mb 51f 51f
12:50 4.5ft 6s 5s 16 18 mph 1022.6mb 51f 51f
jue 07/24 11:50 5ft 7s 5s 16 18 mph 1022.6mb 51f 51f
10:50 4.5ft 6s 5s 16 18 mph 1022.5mb 51f 51f
9:50 5ft 7s 5s 13 18 mph 1022.5mb 51f 51f
8:50 5ft 7s 5s 16 20 mph 1022.4mb 51f 51f
7:50 5ft 7s 5s 18 22 mph 1022.3mb 51f 51f
6:50 5ft 6s 5s 18 22 mph 1022.4mb 51f 51f
5:50 5.5ft 6s 5s 16 20 mph 1022.2mb 51f 51f
4:50 5ft 7s 5s 18 22 mph 1022mb 51f 51f
3:50 5ft 6s 5s 18 25 mph 1021.9mb 51f 51f
2:50 5ft 6s 5s 18 20 mph 1022.2mb 51f 51f
1:50 5ft 6s 5s 18 20 mph 1022.2mb 51f 51f
12:50 4.5ft 6s 5s 20 27 mph 1022.2mb 51f 51f